< < Back
Terminal Aerodrome Forecast


Current Version              Previous Versions:   1  2  3  4  5  6  7  8  9  

Terminal Aerodrome Forecast

251
FTUS42 KGSP 252059 AAC
TAFHKY
TAF AMD
KHKY 252059Z 2521/2618 05004KT 1SM BR OVC002
      TEMPO 2521/2523 1/2SM FG OVC001
     FM252300 VRB03KT 3SM BR SCT010 BKN020
     FM260200 VRB03KT P6SM VCTS OVC035CB
     FM260800 27003KT 6SM BR BKN018
     FM261300 33006KT P6SM BKN019=



Latest METAR

688
SAUS70 KWBC 260200 RRA
MTRHKY
METAR KHKY 260153Z AUTO 09003KT 2SM BR OVC002 10/09 A2964 RMK AO2 SLP024
T01000089


USA.gov is the U.S. government's official web portal to all federal, state and local government web resources and services.